sensor_id;sensor_type;location;lat;lon;timestamp;P1;durP1;ratioP1;P2;durP2;ratioP2
15451;SDS011;7827;53.594;9.938;2023-06-14T00:00:05;0.60;;;0.60;;
15451;SDS011;7827;53.594;9.938;2023-06-14T00:02:35;0.60;;;0.60;;
15451;SDS011;7827;53.594;9.938;2023-06-14T00:05:05;0.60;;;0.60;;
15451;SDS011;7827;53.594;9.938;2023-06-14T00:07:35;0.60;;;0.60;;
15451;SDS011;7827;53.594;9.938;2023-06-14T00:10:09;0.60;;;0.60;;
15451;SDS011;7827;53.594;9.938;2023-06-14T00:12:39;0.60;;;0.60;;
15451;SDS011;7827;53.594;9.938;2023-06-14T00:15:08;0.50;;;0.50;;
15451;SDS011;7827;53.594;9.938;2023-06-14T00:17:37;0.60;;;0.60;;
15451;SDS011;7827;53.594;9.938;2023-06-14T00:20:08;0.55;;;0.55;;
15451;SDS011;7827;53.594;9.938;2023-06-14T00:22:38;0.60;;;0.60;;
15451;SDS011;7827;53.594;9.938;2023-06-14T00:25:06;0.60;;;0.60;;
15451;SDS011;7827;53.594;9.938;2023-06-14T00:27:54;0.50;;;0.50;;
15451;SDS011;7827;53.594;9.938;2023-06-14T00:30:23;0.60;;;0.60;;
15451;SDS011;7827;53.594;9.938;2023-06-14T00:32:57;0.60;;;0.60;;
15451;SDS011;7827;53.594;9.938;2023-06-14T00:35:26;0.60;;;0.60;;
15451;SDS011;7827;53.594;9.938;2023-06-14T00:37:56;0.60;;;0.60;;
15451;SDS011;7827;53.594;9.938;2023-06-14T00:40:25;0.60;;;0.60;;
15451;SDS011;7827;53.594;9.938;2023-06-14T00:42:54;0.60;;;0.60;;
15451;SDS011;7827;53.594;9.938;2023-06-14T00:45:22;0.60;;;0.60;;
15451;SDS011;7827;53.594;9.938;2023-06-14T00:47:50;0.50;;;0.50;;
15451;SDS011;7827;53.594;9.938;2023-06-14T00:50:21;0.60;;;0.60;;
15451;SDS011;7827;53.594;9.938;2023-06-14T00:52:52;0.60;;;0.60;;
15451;SDS011;7827;53.594;9.938;2023-06-14T00:55:20;0.50;;;0.50;;
15451;SDS011;7827;53.594;9.938;2023-06-14T00:57:49;0.60;;;0.60;;
15451;SDS011;7827;53.594;9.938;2023-06-14T01:00:18;0.60;;;0.60;;
15451;SDS011;7827;53.594;9.938;2023-06-14T01:02:46;0.60;;;0.60;;
15451;SDS011;7827;53.594;9.938;2023-06-14T01:05:16;0.60;;;0.60;;
15451;SDS011;7827;53.594;9.938;2023-06-14T01:07:49;0.60;;;0.60;;
15451;SDS011;7827;53.594;9.938;2023-06-14T01:10:40;0.60;;;0.60;;
15451;SDS011;7827;53.594;9.938;2023-06-14T01:13:20;0.50;;;0.50;;
15451;SDS011;7827;53.594;9.938;2023-06-14T01:15:56;0.60;;;0.60;;
15451;SDS011;7827;53.594;9.938;2023-06-14T01:18:27;0.50;;;0.50;;
15451;SDS011;7827;53.594;9.938;2023-06-14T01:20:56;0.60;;;0.60;;
15451;SDS011;7827;53.594;9.938;2023-06-14T01:23:27;0.60;;;0.60;;
15451;SDS011;7827;53.594;9.938;2023-06-14T01:25:59;0.60;;;0.60;;
15451;SDS011;7827;53.594;9.938;2023-06-14T01:28:30;0.60;;;0.60;;
15451;SDS011;7827;53.594;9.938;2023-06-14T01:31:01;0.60;;;0.60;;
15451;SDS011;7827;53.594;9.938;2023-06-14T01:33:32;0.60;;;0.60;;
15451;SDS011;7827;53.594;9.938;2023-06-14T01:36:03;0.60;;;0.60;;
15451;SDS011;7827;53.594;9.938;2023-06-14T01:38:37;0.60;;;0.60;;
15451;SDS011;7827;53.594;9.938;2023-06-14T01:41:06;0.60;;;0.60;;
15451;SDS011;7827;53.594;9.938;2023-06-14T01:43:36;0.60;;;0.60;;
15451;SDS011;7827;53.594;9.938;2023-06-14T01:46:05;0.60;;;0.60;;
15451;SDS011;7827;53.594;9.938;2023-06-14T01:48:35;0.60;;;0.60;;
15451;SDS011;7827;53.594;9.938;2023-06-14T01:51:04;0.60;;;0.60;;
15451;SDS011;7827;53.594;9.938;2023-06-14T01:53:33;0.60;;;0.60;;
15451;SDS011;7827;53.594;9.938;2023-06-14T01:56:02;0.60;;;0.60;;
15451;SDS011;7827;53.594;9.938;2023-06-14T01:58:31;0.60;;;0.60;;
15451;SDS011;7827;53.594;9.938;2023-06-14T02:01:00;0.60;;;0.60;;
15451;SDS011;7827;53.594;9.938;2023-06-14T02:03:28;0.60;;;0.60;;
15451;SDS011;7827;53.594;9.938;2023-06-14T02:05:57;0.60;;;0.60;;
15451;SDS011;7827;53.594;9.938;2023-06-14T02:08:26;0.50;;;0.50;;
15451;SDS011;7827;53.594;9.938;2023-06-14T02:10:54;0.50;;;0.50;;
15451;SDS011;7827;53.594;9.938;2023-06-14T02:13:24;0.60;;;0.60;;
15451;SDS011;7827;53.594;9.938;2023-06-14T02:15:52;0.52;;;0.52;;
15451;SDS011;7827;53.594;9.938;2023-06-14T02:18:21;0.50;;;0.50;;
15451;SDS011;7827;53.594;9.938;2023-06-14T02:20:50;0.68;;;0.68;;
15451;SDS011;7827;53.594;9.938;2023-06-14T02:23:18;0.60;;;0.60;;
15451;SDS011;7827;53.594;9.938;2023-06-14T02:25:47;0.60;;;0.60;;
15451;SDS011;7827;53.594;9.938;2023-06-14T02:28:15;0.50;;;0.50;;
15451;SDS011;7827;53.594;9.938;2023-06-14T02:30:45;0.60;;;0.60;;
15451;SDS011;7827;53.594;9.938;2023-06-14T02:33:14;0.50;;;0.50;;
15451;SDS011;7827;53.594;9.938;2023-06-14T02:35:42;0.60;;;0.60;;
15451;SDS011;7827;53.594;9.938;2023-06-14T02:38:11;0.50;;;0.50;;
15451;SDS011;7827;53.594;9.938;2023-06-14T02:40:40;0.60;;;0.60;;
15451;SDS011;7827;53.594;9.938;2023-06-14T02:43:09;0.60;;;0.60;;
15451;SDS011;7827;53.594;9.938;2023-06-14T02:45:38;0.60;;;0.60;;
15451;SDS011;7827;53.594;9.938;2023-06-14T02:48:08;0.60;;;0.60;;
15451;SDS011;7827;53.594;9.938;2023-06-14T02:50:39;0.50;;;0.50;;
15451;SDS011;7827;53.594;9.938;2023-06-14T02:53:07;0.60;;;0.60;;
15451;SDS011;7827;53.594;9.938;2023-06-14T02:55:35;0.50;;;0.50;;
15451;SDS011;7827;53.594;9.938;2023-06-14T02:58:06;0.60;;;0.60;;
15451;SDS011;7827;53.594;9.938;2023-06-14T03:00:35;0.50;;;0.50;;
15451;SDS011;7827;53.594;9.938;2023-06-14T03:03:05;0.60;;;0.60;;
15451;SDS011;7827;53.594;9.938;2023-06-14T03:05:43;0.60;;;0.60;;
15451;SDS011;7827;53.594;9.938;2023-06-14T03:08:18;0.60;;;0.60;;
15451;SDS011;7827;53.594;9.938;2023-06-14T03:10:50;0.60;;;0.60;;
15451;SDS011;7827;53.594;9.938;2023-06-14T03:13:19;0.60;;;0.60;;
15451;SDS011;7827;53.594;9.938;2023-06-14T03:15:50;0.60;;;0.60;;
15451;SDS011;7827;53.594;9.938;2023-06-14T03:18:20;0.60;;;0.60;;
15451;SDS011;7827;53.594;9.938;2023-06-14T03:20:54;0.60;;;0.60;;
15451;SDS011;7827;53.594;9.938;2023-06-14T03:23:26;0.60;;;0.60;;
15451;SDS011;7827;53.594;9.938;2023-06-14T03:25:54;0.60;;;0.60;;
15451;SDS011;7827;53.594;9.938;2023-06-14T03:28:23;0.60;;;0.60;;
15451;SDS011;7827;53.594;9.938;2023-06-14T03:30:53;0.50;;;0.50;;
15451;SDS011;7827;53.594;9.938;2023-06-14T03:33:23;0.60;;;0.60;;
15451;SDS011;7827;53.594;9.938;2023-06-14T03:35:51;0.50;;;0.50;;
15451;SDS011;7827;53.594;9.938;2023-06-14T03:38:22;0.60;;;0.60;;
15451;SDS011;7827;53.594;9.938;2023-06-14T03:40:50;0.60;;;0.60;;
15451;SDS011;7827;53.594;9.938;2023-06-14T03:43:19;0.60;;;0.60;;
15451;SDS011;7827;53.594;9.938;2023-06-14T03:45:47;0.60;;;0.60;;
15451;SDS011;7827;53.594;9.938;2023-06-14T03:48:17;0.60;;;0.60;;
15451;SDS011;7827;53.594;9.938;2023-06-14T03:50:45;0.60;;;0.60;;
15451;SDS011;7827;53.594;9.938;2023-06-14T03:53:13;0.60;;;0.60;;
15451;SDS011;7827;53.594;9.938;2023-06-14T03:55:48;0.60;;;0.60;;
15451;SDS011;7827;53.594;9.938;2023-06-14T03:58:41;0.60;;;0.60;;
15451;SDS011;7827;53.594;9.938;2023-06-14T04:01:09;0.60;;;0.60;;
15451;SDS011;7827;53.594;9.938;2023-06-14T04:03:38;0.60;;;0.60;;
15451;SDS011;7827;53.594;9.938;2023-06-14T04:06:08;0.50;;;0.50;;
15451;SDS011;7827;53.594;9.938;2023-06-14T04:08:36;0.47;;;0.47;;
15451;SDS011;7827;53.594;9.938;2023-06-14T04:11:07;0.50;;;0.50;;
15451;SDS011;7827;53.594;9.938;2023-06-14T04:13:36;0.40;;;0.40;;
15451;SDS011;7827;53.594;9.938;2023-06-14T04:16:05;0.50;;;0.50;;
15451;SDS011;7827;53.594;9.938;2023-06-14T04:18:35;0.50;;;0.50;;
15451;SDS011;7827;53.594;9.938;2023-06-14T04:21:03;0.40;;;0.40;;
15451;SDS011;7827;53.594;9.938;2023-06-14T04:23:32;0.40;;;0.40;;
15451;SDS011;7827;53.594;9.938;2023-06-14T04:26:01;0.40;;;0.40;;
15451;SDS011;7827;53.594;9.938;2023-06-14T04:28:31;0.40;;;0.40;;
15451;SDS011;7827;53.594;9.938;2023-06-14T04:31:04;0.40;;;0.40;;
15451;SDS011;7827;53.594;9.938;2023-06-14T04:33:35;0.30;;;0.30;;
15451;SDS011;7827;53.594;9.938;2023-06-14T04:36:13;0.40;;;0.40;;
15451;SDS011;7827;53.594;9.938;2023-06-14T04:38:46;0.40;;;0.40;;
15451;SDS011;7827;53.594;9.938;2023-06-14T04:41:15;0.40;;;0.40;;
15451;SDS011;7827;53.594;9.938;2023-06-14T04:43:47;0.40;;;0.40;;
15451;SDS011;7827;53.594;9.938;2023-06-14T04:46:16;0.45;;;0.45;;
15451;SDS011;7827;53.594;9.938;2023-06-14T04:48:45;0.40;;;0.40;;
15451;SDS011;7827;53.594;9.938;2023-06-14T04:51:15;0.40;;;0.40;;
15451;SDS011;7827;53.594;9.938;2023-06-14T04:53:47;0.40;;;0.40;;
15451;SDS011;7827;53.594;9.938;2023-06-14T04:56:16;0.40;;;0.40;;
15451;SDS011;7827;53.594;9.938;2023-06-14T04:58:46;0.40;;;0.40;;
15451;SDS011;7827;53.594;9.938;2023-06-14T05:01:15;0.40;;;0.40;;
15451;SDS011;7827;53.594;9.938;2023-06-14T05:03:43;0.40;;;0.40;;
15451;SDS011;7827;53.594;9.938;2023-06-14T05:06:15;0.40;;;0.40;;
15451;SDS011;7827;53.594;9.938;2023-06-14T05:08:44;0.40;;;0.40;;
15451;SDS011;7827;53.594;9.938;2023-06-14T05:11:13;0.50;;;0.50;;
15451;SDS011;7827;53.594;9.938;2023-06-14T05:13:46;0.40;;;0.40;;
15451;SDS011;7827;53.594;9.938;2023-06-14T05:16:16;0.50;;;0.50;;
15451;SDS011;7827;53.594;9.938;2023-06-14T05:18:46;0.43;;;0.43;;
15451;SDS011;7827;53.594;9.938;2023-06-14T05:21:14;0.40;;;0.40;;
15451;SDS011;7827;53.594;9.938;2023-06-14T05:23:43;0.35;;;0.35;;
15451;SDS011;7827;53.594;9.938;2023-06-14T05:26:12;0.50;;;0.50;;
15451;SDS011;7827;53.594;9.938;2023-06-14T05:28:41;0.47;;;0.47;;
15451;SDS011;7827;53.594;9.938;2023-06-14T05:31:11;0.40;;;0.40;;
15451;SDS011;7827;53.594;9.938;2023-06-14T05:33:39;0.40;;;0.40;;
15451;SDS011;7827;53.594;9.938;2023-06-14T05:36:08;0.40;;;0.40;;
15451;SDS011;7827;53.594;9.938;2023-06-14T05:38:36;0.40;;;0.40;;
15451;SDS011;7827;53.594;9.938;2023-06-14T05:41:05;0.40;;;0.40;;
15451;SDS011;7827;53.594;9.938;2023-06-14T05:43:33;0.40;;;0.40;;
15451;SDS011;7827;53.594;9.938;2023-06-14T05:46:01;0.40;;;0.40;;
15451;SDS011;7827;53.594;9.938;2023-06-14T05:48:31;0.40;;;0.40;;
15451;SDS011;7827;53.594;9.938;2023-06-14T05:50:59;0.50;;;0.50;;
15451;SDS011;7827;53.594;9.938;2023-06-14T05:53:28;0.40;;;0.40;;
15451;SDS011;7827;53.594;9.938;2023-06-14T05:55:57;0.40;;;0.40;;
15451;SDS011;7827;53.594;9.938;2023-06-14T05:58:25;0.40;;;0.40;;
15451;SDS011;7827;53.594;9.938;2023-06-14T06:00:53;0.40;;;0.40;;
15451;SDS011;7827;53.594;9.938;2023-06-14T06:03:22;0.40;;;0.40;;
15451;SDS011;7827;53.594;9.938;2023-06-14T06:05:52;0.38;;;0.38;;
15451;SDS011;7827;53.594;9.938;2023-06-14T06:08:20;0.40;;;0.40;;
15451;SDS011;7827;53.594;9.938;2023-06-14T06:10:49;0.40;;;0.40;;
15451;SDS011;7827;53.594;9.938;2023-06-14T06:13:17;0.40;;;0.40;;
15451;SDS011;7827;53.594;9.938;2023-06-14T06:15:46;1.65;;;0.50;;
15451;SDS011;7827;53.594;9.938;2023-06-14T06:18:15;0.40;;;0.40;;
15451;SDS011;7827;53.594;9.938;2023-06-14T06:20:43;0.40;;;0.40;;
15451;SDS011;7827;53.594;9.938;2023-06-14T06:23:14;0.40;;;0.40;;
15451;SDS011;7827;53.594;9.938;2023-06-14T06:25:43;0.50;;;0.50;;
15451;SDS011;7827;53.594;9.938;2023-06-14T06:28:11;0.55;;;0.55;;
15451;SDS011;7827;53.594;9.938;2023-06-14T06:30:40;0.30;;;0.30;;
15451;SDS011;7827;53.594;9.938;2023-06-14T06:33:08;0.35;;;0.35;;
15451;SDS011;7827;53.594;9.938;2023-06-14T06:35:37;0.40;;;0.40;;
15451;SDS011;7827;53.594;9.938;2023-06-14T06:38:05;0.40;;;0.40;;
15451;SDS011;7827;53.594;9.938;2023-06-14T06:40:36;0.30;;;0.30;;
15451;SDS011;7827;53.594;9.938;2023-06-14T06:43:04;0.30;;;0.30;;
15451;SDS011;7827;53.594;9.938;2023-06-14T06:45:40;0.40;;;0.40;;
15451;SDS011;7827;53.594;9.938;2023-06-14T06:48:08;0.30;;;0.30;;
15451;SDS011;7827;53.594;9.938;2023-06-14T06:50:37;0.40;;;0.40;;
15451;SDS011;7827;53.594;9.938;2023-06-14T06:53:06;0.40;;;0.40;;
15451;SDS011;7827;53.594;9.938;2023-06-14T06:55:34;0.40;;;0.40;;
15451;SDS011;7827;53.594;9.938;2023-06-14T06:58:04;0.30;;;0.30;;
15451;SDS011;7827;53.594;9.938;2023-06-14T07:00:32;0.40;;;0.40;;
15451;SDS011;7827;53.594;9.938;2023-06-14T07:03:01;0.30;;;0.30;;
15451;SDS011;7827;53.594;9.938;2023-06-14T07:05:30;0.30;;;0.30;;
15451;SDS011;7827;53.594;9.938;2023-06-14T07:07:59;0.30;;;0.30;;
15451;SDS011;7827;53.594;9.938;2023-06-14T07:10:27;0.38;;;0.38;;
15451;SDS011;7827;53.594;9.938;2023-06-14T07:12:56;0.38;;;0.38;;
15451;SDS011;7827;53.594;9.938;2023-06-14T07:15:25;0.30;;;0.30;;
15451;SDS011;7827;53.594;9.938;2023-06-14T07:17:54;0.32;;;0.32;;
15451;SDS011;7827;53.594;9.938;2023-06-14T07:20:26;0.38;;;0.38;;
15451;SDS011;7827;53.594;9.938;2023-06-14T07:22:54;0.30;;;0.30;;
15451;SDS011;7827;53.594;9.938;2023-06-14T07:25:23;0.40;;;0.40;;
15451;SDS011;7827;53.594;9.938;2023-06-14T07:27:51;0.30;;;0.30;;
15451;SDS011;7827;53.594;9.938;2023-06-14T07:30:20;0.30;;;0.30;;
15451;SDS011;7827;53.594;9.938;2023-06-14T07:32:53;0.40;;;0.40;;
15451;SDS011;7827;53.594;9.938;2023-06-14T07:35:22;0.30;;;0.30;;
15451;SDS011;7827;53.594;9.938;2023-06-14T07:37:50;0.35;;;0.35;;
15451;SDS011;7827;53.594;9.938;2023-06-14T07:40:19;0.40;;;0.40;;
15451;SDS011;7827;53.594;9.938;2023-06-14T07:42:47;0.40;;;0.40;;
15451;SDS011;7827;53.594;9.938;2023-06-14T07:45:16;0.40;;;0.40;;
15451;SDS011;7827;53.594;9.938;2023-06-14T07:47:46;0.40;;;0.40;;
15451;SDS011;7827;53.594;9.938;2023-06-14T07:50:16;0.30;;;0.30;;
15451;SDS011;7827;53.594;9.938;2023-06-14T07:52:44;0.30;;;0.30;;
15451;SDS011;7827;53.594;9.938;2023-06-14T07:55:14;0.40;;;0.40;;
15451;SDS011;7827;53.594;9.938;2023-06-14T07:57:45;0.40;;;0.40;;
15451;SDS011;7827;53.594;9.938;2023-06-14T08:00:14;0.38;;;0.38;;
15451;SDS011;7827;53.594;9.938;2023-06-14T08:02:44;0.30;;;0.30;;
15451;SDS011;7827;53.594;9.938;2023-06-14T08:05:13;0.32;;;0.32;;
15451;SDS011;7827;53.594;9.938;2023-06-14T08:07:43;0.40;;;0.40;;
15451;SDS011;7827;53.594;9.938;2023-06-14T08:10:12;0.40;;;0.40;;
15451;SDS011;7827;53.594;9.938;2023-06-14T08:12:41;0.30;;;0.30;;
15451;SDS011;7827;53.594;9.938;2023-06-14T08:15:09;0.40;;;0.40;;
15451;SDS011;7827;53.594;9.938;2023-06-14T08:17:41;0.32;;;0.32;;
15451;SDS011;7827;53.594;9.938;2023-06-14T08:20:11;0.30;;;0.30;;
15451;SDS011;7827;53.594;9.938;2023-06-14T08:22:44;0.40;;;0.40;;
15451;SDS011;7827;53.594;9.938;2023-06-14T08:25:13;0.30;;;0.30;;
15451;SDS011;7827;53.594;9.938;2023-06-14T08:28:01;0.30;;;0.30;;
15451;SDS011;7827;53.594;9.938;2023-06-14T08:30:48;0.40;;;0.40;;
15451;SDS011;7827;53.594;9.938;2023-06-14T08:33:35;0.30;;;0.30;;
15451;SDS011;7827;53.594;9.938;2023-06-14T08:36:22;0.22;;;0.22;;
15451;SDS011;7827;53.594;9.938;2023-06-14T08:39:10;0.30;;;0.30;;
15451;SDS011;7827;53.594;9.938;2023-06-14T08:41:57;0.30;;;0.30;;
15451;SDS011;7827;53.594;9.938;2023-06-14T08:44:44;0.30;;;0.30;;
15451;SDS011;7827;53.594;9.938;2023-06-14T08:47:30;0.30;;;0.30;;
15451;SDS011;7827;53.594;9.938;2023-06-14T08:50:26;0.30;;;0.30;;
15451;SDS011;7827;53.594;9.938;2023-06-14T08:53:17;0.30;;;0.30;;
15451;SDS011;7827;53.594;9.938;2023-06-14T08:56:06;0.30;;;0.30;;
15451;SDS011;7827;53.594;9.938;2023-06-14T08:58:58;0.30;;;0.30;;
15451;SDS011;7827;53.594;9.938;2023-06-14T09:01:47;0.40;;;0.40;;
15451;SDS011;7827;53.594;9.938;2023-06-14T09:04:56;0.30;;;0.30;;
15451;SDS011;7827;53.594;9.938;2023-06-14T09:07:45;0.30;;;0.30;;
15451;SDS011;7827;53.594;9.938;2023-06-14T09:10:34;0.20;;;0.20;;
15451;SDS011;7827;53.594;9.938;2023-06-14T09:13:24;0.30;;;0.30;;
15451;SDS011;7827;53.594;9.938;2023-06-14T09:16:16;0.30;;;0.30;;
15451;SDS011;7827;53.594;9.938;2023-06-14T09:18:45;0.30;;;0.30;;
15451;SDS011;7827;53.594;9.938;2023-06-14T09:21:15;0.20;;;0.20;;
15451;SDS011;7827;53.594;9.938;2023-06-14T09:23:45;0.30;;;0.30;;
15451;SDS011;7827;53.594;9.938;2023-06-14T09:26:16;0.30;;;0.30;;
15451;SDS011;7827;53.594;9.938;2023-06-14T09:28:48;0.20;;;0.20;;
15451;SDS011;7827;53.594;9.938;2023-06-14T09:31:18;0.22;;;0.22;;
15451;SDS011;7827;53.594;9.938;2023-06-14T09:33:48;0.30;;;0.30;;
15451;SDS011;7827;53.594;9.938;2023-06-14T09:36:18;0.28;;;0.28;;
15451;SDS011;7827;53.594;9.938;2023-06-14T09:38:53;0.30;;;0.30;;
15451;SDS011;7827;53.594;9.938;2023-06-14T09:41:30;0.20;;;0.20;;
15451;SDS011;7827;53.594;9.938;2023-06-14T09:44:01;0.30;;;0.30;;
15451;SDS011;7827;53.594;9.938;2023-06-14T09:46:37;0.30;;;0.30;;
15451;SDS011;7827;53.594;9.938;2023-06-14T09:49:06;0.30;;;0.30;;
15451;SDS011;7827;53.594;9.938;2023-06-14T09:51:36;0.30;;;0.30;;
15451;SDS011;7827;53.594;9.938;2023-06-14T09:54:12;0.30;;;0.30;;
15451;SDS011;7827;53.594;9.938;2023-06-14T09:56:44;0.20;;;0.20;;
15451;SDS011;7827;53.594;9.938;2023-06-14T09:59:17;0.20;;;0.20;;
15451;SDS011;7827;53.594;9.938;2023-06-14T10:01:56;0.30;;;0.30;;
15451;SDS011;7827;53.594;9.938;2023-06-14T10:04:26;0.30;;;0.30;;
15451;SDS011;7827;53.594;9.938;2023-06-14T10:06:57;0.30;;;0.30;;
15451;SDS011;7827;53.594;9.938;2023-06-14T10:09:28;0.22;;;0.22;;
15451;SDS011;7827;53.594;9.938;2023-06-14T10:11:58;0.30;;;0.30;;
15451;SDS011;7827;53.594;9.938;2023-06-14T10:14:30;0.30;;;0.30;;
15451;SDS011;7827;53.594;9.938;2023-06-14T10:17:00;0.30;;;0.30;;
15451;SDS011;7827;53.594;9.938;2023-06-14T10:19:37;0.20;;;0.20;;
15451;SDS011;7827;53.594;9.938;2023-06-14T10:22:14;0.30;;;0.30;;
15451;SDS011;7827;53.594;9.938;2023-06-14T10:24:51;0.30;;;0.30;;
15451;SDS011;7827;53.594;9.938;2023-06-14T10:27:19;0.20;;;0.20;;
15451;SDS011;7827;53.594;9.938;2023-06-14T10:30:05;0.20;;;0.20;;
15451;SDS011;7827;53.594;9.938;2023-06-14T10:32:42;0.30;;;0.30;;
15451;SDS011;7827;53.594;9.938;2023-06-14T10:35:36;0.30;;;0.30;;
15451;SDS011;7827;53.594;9.938;2023-06-14T10:38:08;0.30;;;0.30;;
15451;SDS011;7827;53.594;9.938;2023-06-14T10:40:38;0.30;;;0.30;;
15451;SDS011;7827;53.594;9.938;2023-06-14T10:43:20;0.20;;;0.20;;
15451;SDS011;7827;53.594;9.938;2023-06-14T10:48:45;0.30;;;0.30;;
15451;SDS011;7827;53.594;9.938;2023-06-14T10:51:17;0.22;;;0.22;;
15451;SDS011;7827;53.594;9.938;2023-06-14T10:53:50;0.30;;;0.30;;
15451;SDS011;7827;53.594;9.938;2023-06-14T10:56:28;0.30;;;0.30;;
15451;SDS011;7827;53.594;9.938;2023-06-14T10:58:58;0.30;;;0.30;;
15451;SDS011;7827;53.594;9.938;2023-06-14T11:01:31;0.28;;;0.28;;
15451;SDS011;7827;53.594;9.938;2023-06-14T11:04:07;0.20;;;0.20;;
15451;SDS011;7827;53.594;9.938;2023-06-14T11:06:47;0.20;;;0.20;;
15451;SDS011;7827;53.594;9.938;2023-06-14T11:12:36;0.30;;;0.30;;
15451;SDS011;7827;53.594;9.938;2023-06-14T11:15:09;0.30;;;0.30;;
15451;SDS011;7827;53.594;9.938;2023-06-14T11:17:37;0.30;;;0.30;;
15451;SDS011;7827;53.594;9.938;2023-06-14T11:20:10;0.30;;;0.30;;
15451;SDS011;7827;53.594;9.938;2023-06-14T11:22:46;0.30;;;0.30;;
15451;SDS011;7827;53.594;9.938;2023-06-14T11:25:14;0.20;;;0.20;;
15451;SDS011;7827;53.594;9.938;2023-06-14T11:27:44;0.20;;;0.20;;
15451;SDS011;7827;53.594;9.938;2023-06-14T11:30:12;0.20;;;0.20;;
15451;SDS011;7827;53.594;9.938;2023-06-14T11:32:41;0.30;;;0.30;;
15451;SDS011;7827;53.594;9.938;2023-06-14T11:35:11;0.20;;;0.20;;
15451;SDS011;7827;53.594;9.938;2023-06-14T11:37:40;0.22;;;0.22;;
15451;SDS011;7827;53.594;9.938;2023-06-14T11:40:09;0.20;;;0.20;;
15451;SDS011;7827;53.594;9.938;2023-06-14T11:42:40;0.30;;;0.30;;
15451;SDS011;7827;53.594;9.938;2023-06-14T11:45:09;0.20;;;0.20;;
15451;SDS011;7827;53.594;9.938;2023-06-14T11:47:39;0.30;;;0.30;;
15451;SDS011;7827;53.594;9.938;2023-06-14T11:50:08;0.20;;;0.20;;
15451;SDS011;7827;53.594;9.938;2023-06-14T11:52:38;0.25;;;0.25;;
15451;SDS011;7827;53.594;9.938;2023-06-14T11:55:07;0.30;;;0.30;;
15451;SDS011;7827;53.594;9.938;2023-06-14T11:57:37;0.30;;;0.30;;
15451;SDS011;7827;53.594;9.938;2023-06-14T12:00:06;0.20;;;0.20;;
15451;SDS011;7827;53.594;9.938;2023-06-14T12:02:38;0.30;;;0.30;;
15451;SDS011;7827;53.594;9.938;2023-06-14T12:05:07;0.30;;;0.30;;
15451;SDS011;7827;53.594;9.938;2023-06-14T12:07:38;0.30;;;0.30;;
15451;SDS011;7827;53.594;9.938;2023-06-14T12:10:08;0.22;;;0.22;;
15451;SDS011;7827;53.594;9.938;2023-06-14T12:12:37;0.30;;;0.30;;
15451;SDS011;7827;53.594;9.938;2023-06-14T12:15:09;0.22;;;0.22;;
15451;SDS011;7827;53.594;9.938;2023-06-14T12:17:39;0.20;;;0.20;;
15451;SDS011;7827;53.594;9.938;2023-06-14T12:20:12;0.20;;;0.20;;
15451;SDS011;7827;53.594;9.938;2023-06-14T12:22:50;0.22;;;0.22;;
15451;SDS011;7827;53.594;9.938;2023-06-14T12:25:23;0.20;;;0.20;;
15451;SDS011;7827;53.594;9.938;2023-06-14T12:27:54;0.30;;;0.30;;
15451;SDS011;7827;53.594;9.938;2023-06-14T12:30:22;0.20;;;0.20;;
15451;SDS011;7827;53.594;9.938;2023-06-14T12:32:51;0.20;;;0.20;;
15451;SDS011;7827;53.594;9.938;2023-06-14T12:35:21;0.20;;;0.20;;
15451;SDS011;7827;53.594;9.938;2023-06-14T12:37:50;0.28;;;0.28;;
15451;SDS011;7827;53.594;9.938;2023-06-14T12:40:21;0.20;;;0.20;;
15451;SDS011;7827;53.594;9.938;2023-06-14T12:42:50;0.20;;;0.20;;
15451;SDS011;7827;53.594;9.938;2023-06-14T12:45:18;0.28;;;0.28;;
15451;SDS011;7827;53.594;9.938;2023-06-14T12:47:47;0.30;;;0.30;;
15451;SDS011;7827;53.594;9.938;2023-06-14T12:50:15;0.30;;;0.30;;
15451;SDS011;7827;53.594;9.938;2023-06-14T12:52:45;0.30;;;0.30;;
15451;SDS011;7827;53.594;9.938;2023-06-14T12:55:13;0.30;;;0.30;;
15451;SDS011;7827;53.594;9.938;2023-06-14T12:57:42;0.30;;;0.30;;
15451;SDS011;7827;53.594;9.938;2023-06-14T13:00:11;0.30;;;0.30;;
15451;SDS011;7827;53.594;9.938;2023-06-14T13:02:41;0.30;;;0.30;;
15451;SDS011;7827;53.594;9.938;2023-06-14T13:05:09;0.30;;;0.30;;
15451;SDS011;7827;53.594;9.938;2023-06-14T13:07:37;0.30;;;0.30;;
15451;SDS011;7827;53.594;9.938;2023-06-14T13:10:07;0.30;;;0.30;;
15451;SDS011;7827;53.594;9.938;2023-06-14T13:12:36;0.30;;;0.30;;
15451;SDS011;7827;53.594;9.938;2023-06-14T13:15:05;0.30;;;0.30;;
15451;SDS011;7827;53.594;9.938;2023-06-14T13:17:35;0.30;;;0.30;;
15451;SDS011;7827;53.594;9.938;2023-06-14T13:20:05;0.25;;;0.25;;
15451;SDS011;7827;53.594;9.938;2023-06-14T13:22:34;0.30;;;0.30;;
15451;SDS011;7827;53.594;9.938;2023-06-14T13:25:03;0.25;;;0.25;;
15451;SDS011;7827;53.594;9.938;2023-06-14T13:27:34;0.20;;;0.20;;
15451;SDS011;7827;53.594;9.938;2023-06-14T13:30:02;0.30;;;0.30;;
15451;SDS011;7827;53.594;9.938;2023-06-14T13:32:33;0.20;;;0.20;;
15451;SDS011;7827;53.594;9.938;2023-06-14T13:35:01;0.20;;;0.20;;
15451;SDS011;7827;53.594;9.938;2023-06-14T13:37:30;0.20;;;0.20;;
15451;SDS011;7827;53.594;9.938;2023-06-14T13:39:58;0.20;;;0.20;;
15451;SDS011;7827;53.594;9.938;2023-06-14T13:42:27;0.20;;;0.20;;
15451;SDS011;7827;53.594;9.938;2023-06-14T13:44:59;0.20;;;0.20;;
15451;SDS011;7827;53.594;9.938;2023-06-14T13:47:45;0.30;;;0.30;;
15451;SDS011;7827;53.594;9.938;2023-06-14T13:50:32;0.30;;;0.30;;
15451;SDS011;7827;53.594;9.938;2023-06-14T13:53:18;0.20;;;0.20;;
15451;SDS011;7827;53.594;9.938;2023-06-14T13:56:04;0.20;;;0.20;;
15451;SDS011;7827;53.594;9.938;2023-06-14T13:58:50;0.20;;;0.20;;
15451;SDS011;7827;53.594;9.938;2023-06-14T14:01:38;0.30;;;0.30;;
15451;SDS011;7827;53.594;9.938;2023-06-14T14:04:24;0.20;;;0.20;;
15451;SDS011;7827;53.594;9.938;2023-06-14T14:07:10;0.20;;;0.20;;
15451;SDS011;7827;53.594;9.938;2023-06-14T14:09:56;0.30;;;0.30;;
15451;SDS011;7827;53.594;9.938;2023-06-14T14:12:42;0.20;;;0.20;;
15451;SDS011;7827;53.594;9.938;2023-06-14T14:15:29;0.25;;;0.25;;
15451;SDS011;7827;53.594;9.938;2023-06-14T14:18:17;0.28;;;0.28;;
15451;SDS011;7827;53.594;9.938;2023-06-14T14:21:04;0.20;;;0.20;;
15451;SDS011;7827;53.594;9.938;2023-06-14T14:23:51;0.20;;;0.20;;
15451;SDS011;7827;53.594;9.938;2023-06-14T14:26:37;0.20;;;0.20;;
15451;SDS011;7827;53.594;9.938;2023-06-14T14:29:23;0.30;;;0.30;;
15451;SDS011;7827;53.594;9.938;2023-06-14T14:31:53;0.20;;;0.20;;
15451;SDS011;7827;53.594;9.938;2023-06-14T14:34:23;0.20;;;0.20;;
15451;SDS011;7827;53.594;9.938;2023-06-14T14:36:52;0.30;;;0.30;;
15451;SDS011;7827;53.594;9.938;2023-06-14T14:39:21;0.20;;;0.20;;
15451;SDS011;7827;53.594;9.938;2023-06-14T14:41:49;0.20;;;0.20;;
15451;SDS011;7827;53.594;9.938;2023-06-14T14:44:18;0.20;;;0.20;;
15451;SDS011;7827;53.594;9.938;2023-06-14T14:46:46;0.20;;;0.20;;
15451;SDS011;7827;53.594;9.938;2023-06-14T14:49:14;0.20;;;0.20;;
15451;SDS011;7827;53.594;9.938;2023-06-14T14:51:44;0.30;;;0.30;;
15451;SDS011;7827;53.594;9.938;2023-06-14T14:54:13;0.20;;;0.20;;
15451;SDS011;7827;53.594;9.938;2023-06-14T14:56:41;0.25;;;0.25;;
15451;SDS011;7827;53.594;9.938;2023-06-14T14:59:09;0.30;;;0.30;;
15451;SDS011;7827;53.594;9.938;2023-06-14T15:01:39;0.20;;;0.20;;
15451;SDS011;7827;53.594;9.938;2023-06-14T15:04:07;0.20;;;0.20;;
15451;SDS011;7827;53.594;9.938;2023-06-14T15:06:36;0.20;;;0.20;;
15451;SDS011;7827;53.594;9.938;2023-06-14T15:09:07;0.20;;;0.20;;
15451;SDS011;7827;53.594;9.938;2023-06-14T15:11:36;0.20;;;0.20;;
15451;SDS011;7827;53.594;9.938;2023-06-14T15:14:04;0.20;;;0.20;;
15451;SDS011;7827;53.594;9.938;2023-06-14T15:16:32;0.20;;;0.20;;
15451;SDS011;7827;53.594;9.938;2023-06-14T15:19:01;0.20;;;0.20;;
15451;SDS011;7827;53.594;9.938;2023-06-14T15:21:29;0.20;;;0.20;;
15451;SDS011;7827;53.594;9.938;2023-06-14T15:23:59;0.30;;;0.30;;
15451;SDS011;7827;53.594;9.938;2023-06-14T15:26:28;0.20;;;0.20;;
15451;SDS011;7827;53.594;9.938;2023-06-14T15:28:57;0.20;;;0.20;;
15451;SDS011;7827;53.594;9.938;2023-06-14T15:31:25;0.20;;;0.20;;
15451;SDS011;7827;53.594;9.938;2023-06-14T15:33:55;0.30;;;0.30;;